Arlington, IN

12:54 AM EST on December 20, 2014 (GMT -0500)
Anderson Municipal-Darlington | Change Station
CLOSE
Current Station
Airport
Location: Anderson,
Elevation: 919 ft
Nearby Weather Stations

Elev 919 ft 40.11 °N, 85.61 °W | Updated 9 hours ago

Overcast
Overcast
25 °F
Feels Like 25 °F
N
2
Wind Variable Wind from East
Gusts 2 mph

Today
High -- | Low -- °F
--% Chance of Precip.
Yesterday
High -- | Low -- °F
Precip. -- in
7:59 AM 5:20 PM
Waning Crescent, 4% visible
Pressure 30.27 in
Visibility 7.0 miles
Clouds Overcast 2300 ft
Dew Point 25 °F
Humidity 95%
Rainfall 0.00 in
Snow Depth Not available.
UV 0 out of 12
Pollen .10 out of 12
Air Quality Not available.
Flu Activity Not available.
METAR KAID 192047Z 00000KT 7SM OVC023 M02/M05 A3027

More Conditions Fewer Conditions

Pressure 30.27 in
Visibility 7.0 miles
Clouds Overcast 2300 ft
Dew Point 25 °F
Humidity 95%
Rainfall 0.00 in
Snow Depth Not available.
UV 0 out of 12
Pollen .10 out of 12
Air Quality Not available.
Flu Activity Not available.
METAR KAID 192047Z 00000KT 7SM OVC023 M02/M05 A3027

More Conditions Fewer Conditions

10-Day Weather Forecast

Almanac

Astronomy

Dec. 20, 2014 Rise Set
Actual Time
Civil Twilight
Nautical Twilight
Astronomical Twilight
Moon
Length of Visible Light
Length of Day
Tomorrow will be .
, % of the Moon is Illuminated

Today's Extremes

State Highs State Lows

Community

WunderPhotos

Upload Photos

1,779,141 photos uploaded!

WunderBlogs® & News

Nearby

Air Quality

  Air Quality AQ Index Pollutant
Not available.

Snow Depth

Station Depth Elevation

Earthquake Activity

City Distance Mag. Time & Date
Minimum magnitude displayed is 2.5.

Coastal Water Temperatures

Place Temperature

Nearby Weather Stations